sensor_id;sensor_type;location;lat;lon;timestamp;P1;durP1;ratioP1;P2;durP2;ratioP2
21820;SDS011;11073;48.586;12.066;2022-12-05T00:02:14;32.90;;;16.60;;
21820;SDS011;11073;48.586;12.066;2022-12-05T00:04:43;37.17;;;18.77;;
21820;SDS011;11073;48.586;12.066;2022-12-05T00:07:12;35.90;;;17.97;;
21820;SDS011;11073;48.586;12.066;2022-12-05T00:09:40;35.07;;;17.53;;
21820;SDS011;11073;48.586;12.066;2022-12-05T00:12:09;33.63;;;16.87;;
21820;SDS011;11073;48.586;12.066;2022-12-05T00:14:38;35.43;;;17.47;;
21820;SDS011;11073;48.586;12.066;2022-12-05T00:17:06;36.90;;;18.70;;
21820;SDS011;11073;48.586;12.066;2022-12-05T00:19:36;36.03;;;17.37;;
21820;SDS011;11073;48.586;12.066;2022-12-05T00:22:06;32.10;;;16.07;;
21820;SDS011;11073;48.586;12.066;2022-12-05T00:24:34;37.07;;;17.40;;
21820;SDS011;11073;48.586;12.066;2022-12-05T00:27:03;34.30;;;16.80;;
21820;SDS011;11073;48.586;12.066;2022-12-05T00:29:32;37.40;;;17.53;;
21820;SDS011;11073;48.586;12.066;2022-12-05T00:32:01;35.10;;;17.50;;
21820;SDS011;11073;48.586;12.066;2022-12-05T00:34:30;32.87;;;17.97;;
21820;SDS011;11073;48.586;12.066;2022-12-05T00:37:00;37.47;;;17.13;;
21820;SDS011;11073;48.586;12.066;2022-12-05T00:39:29;40.43;;;19.10;;
21820;SDS011;11073;48.586;12.066;2022-12-05T00:41:57;31.07;;;17.70;;
21820;SDS011;11073;48.586;12.066;2022-12-05T00:44:26;32.03;;;16.80;;
21820;SDS011;11073;48.586;12.066;2022-12-05T00:46:55;37.13;;;17.97;;
21820;SDS011;11073;48.586;12.066;2022-12-05T00:49:23;33.47;;;16.40;;
21820;SDS011;11073;48.586;12.066;2022-12-05T00:51:52;34.80;;;16.47;;
21820;SDS011;11073;48.586;12.066;2022-12-05T00:54:22;30.10;;;16.13;;
21820;SDS011;11073;48.586;12.066;2022-12-05T00:56:51;31.73;;;15.67;;
21820;SDS011;11073;48.586;12.066;2022-12-05T00:59:22;31.73;;;15.13;;
21820;SDS011;11073;48.586;12.066;2022-12-05T01:01:51;32.20;;;16.20;;
21820;SDS011;11073;48.586;12.066;2022-12-05T01:04:20;32.83;;;16.17;;
21820;SDS011;11073;48.586;12.066;2022-12-05T01:06:53;35.27;;;16.40;;
21820;SDS011;11073;48.586;12.066;2022-12-05T01:09:24;32.73;;;15.83;;
21820;SDS011;11073;48.586;12.066;2022-12-05T01:11:53;31.00;;;15.27;;
21820;SDS011;11073;48.586;12.066;2022-12-05T01:14:22;28.77;;;14.20;;
21820;SDS011;11073;48.586;12.066;2022-12-05T01:16:53;25.97;;;14.90;;
21820;SDS011;11073;48.586;12.066;2022-12-05T01:19:23;26.53;;;14.13;;
21820;SDS011;11073;48.586;12.066;2022-12-05T01:21:53;25.70;;;14.03;;
21820;SDS011;11073;48.586;12.066;2022-12-05T01:24:23;27.50;;;14.57;;
21820;SDS011;11073;48.586;12.066;2022-12-05T01:26:54;30.83;;;15.13;;
21820;SDS011;11073;48.586;12.066;2022-12-05T01:29:23;30.77;;;15.30;;
21820;SDS011;11073;48.586;12.066;2022-12-05T01:31:52;30.17;;;15.23;;
21820;SDS011;11073;48.586;12.066;2022-12-05T01:34:21;25.97;;;13.40;;
21820;SDS011;11073;48.586;12.066;2022-12-05T01:36:50;25.07;;;13.43;;
21820;SDS011;11073;48.586;12.066;2022-12-05T01:39:18;28.57;;;14.60;;
21820;SDS011;11073;48.586;12.066;2022-12-05T01:41:49;22.97;;;12.43;;
21820;SDS011;11073;48.586;12.066;2022-12-05T01:47:27;23.50;;;12.77;;
21820;SDS011;11073;48.586;12.066;2022-12-05T01:49:58;19.63;;;11.73;;
21820;SDS011;11073;48.586;12.066;2022-12-05T01:52:27;24.57;;;12.73;;
21820;SDS011;11073;48.586;12.066;2022-12-05T01:55:00;21.10;;;11.70;;
21820;SDS011;11073;48.586;12.066;2022-12-05T01:57:34;24.00;;;12.27;;
21820;SDS011;11073;48.586;12.066;2022-12-05T02:00:05;24.13;;;12.60;;
21820;SDS011;11073;48.586;12.066;2022-12-05T02:02:38;24.20;;;12.93;;
21820;SDS011;11073;48.586;12.066;2022-12-05T02:05:10;19.03;;;11.63;;
21820;SDS011;11073;48.586;12.066;2022-12-05T02:07:43;24.87;;;12.63;;
21820;SDS011;11073;48.586;12.066;2022-12-05T02:10:14;25.43;;;13.17;;
21820;SDS011;11073;48.586;12.066;2022-12-05T02:12:45;21.27;;;11.77;;
21820;SDS011;11073;48.586;12.066;2022-12-05T02:15:17;18.67;;;10.90;;
21820;SDS011;11073;48.586;12.066;2022-12-05T02:17:58;21.50;;;12.07;;
21820;SDS011;11073;48.586;12.066;2022-12-05T02:20:40;20.10;;;11.50;;
21820;SDS011;11073;48.586;12.066;2022-12-05T02:26:54;22.63;;;12.20;;
21820;SDS011;11073;48.586;12.066;2022-12-05T02:32:31;18.97;;;11.77;;
21820;SDS011;11073;48.586;12.066;2022-12-05T02:35:09;21.10;;;11.30;;
21820;SDS011;11073;48.586;12.066;2022-12-05T02:37:46;18.13;;;11.20;;
21820;SDS011;11073;48.586;12.066;2022-12-05T02:40:23;23.90;;;12.73;;
21820;SDS011;11073;48.586;12.066;2022-12-05T02:42:58;24.70;;;12.53;;
21820;SDS011;11073;48.586;12.066;2022-12-05T02:45:32;26.53;;;12.60;;
21820;SDS011;11073;48.586;12.066;2022-12-05T02:48:05;18.83;;;11.67;;
21820;SDS011;11073;48.586;12.066;2022-12-05T02:50:35;21.10;;;11.77;;
21820;SDS011;11073;48.586;12.066;2022-12-05T02:53:06;24.40;;;12.97;;
21820;SDS011;11073;48.586;12.066;2022-12-05T02:55:38;20.80;;;12.13;;
21820;SDS011;11073;48.586;12.066;2022-12-05T02:58:10;19.80;;;12.00;;
21820;SDS011;11073;48.586;12.066;2022-12-05T03:00:45;20.67;;;12.03;;
21820;SDS011;11073;48.586;12.066;2022-12-05T03:03:17;20.27;;;12.00;;
21820;SDS011;11073;48.586;12.066;2022-12-05T03:05:50;25.93;;;13.73;;
21820;SDS011;11073;48.586;12.066;2022-12-05T03:08:25;19.67;;;11.50;;
21820;SDS011;11073;48.586;12.066;2022-12-05T03:10:57;19.07;;;11.83;;
21820;SDS011;11073;48.586;12.066;2022-12-05T03:13:31;19.97;;;11.80;;
21820;SDS011;11073;48.586;12.066;2022-12-05T03:16:05;19.43;;;11.13;;
21820;SDS011;11073;48.586;12.066;2022-12-05T03:18:39;21.10;;;11.90;;
21820;SDS011;11073;48.586;12.066;2022-12-05T03:21:14;15.43;;;9.43;;
21820;SDS011;11073;48.586;12.066;2022-12-05T03:23:50;14.87;;;9.17;;
21820;SDS011;11073;48.586;12.066;2022-12-05T03:26:26;16.63;;;10.07;;
21820;SDS011;11073;48.586;12.066;2022-12-05T03:29:08;15.43;;;9.67;;
21820;SDS011;11073;48.586;12.066;2022-12-05T03:31:53;14.20;;;9.17;;
21820;SDS011;11073;48.586;12.066;2022-12-05T03:34:31;15.40;;;9.53;;
21820;SDS011;11073;48.586;12.066;2022-12-05T03:37:10;14.87;;;9.20;;
21820;SDS011;11073;48.586;12.066;2022-12-05T03:39:43;18.40;;;9.17;;
21820;SDS011;11073;48.586;12.066;2022-12-05T03:42:19;18.30;;;10.03;;
21820;SDS011;11073;48.586;12.066;2022-12-05T03:44:56;16.50;;;9.63;;
21820;SDS011;11073;48.586;12.066;2022-12-05T03:47:31;18.40;;;10.50;;
21820;SDS011;11073;48.586;12.066;2022-12-05T03:50:08;17.40;;;10.20;;
21820;SDS011;11073;48.586;12.066;2022-12-05T03:52:41;18.70;;;10.57;;
21820;SDS011;11073;48.586;12.066;2022-12-05T03:55:35;16.67;;;9.70;;
21820;SDS011;11073;48.586;12.066;2022-12-05T03:58:07;14.63;;;9.57;;
21820;SDS011;11073;48.586;12.066;2022-12-05T04:00:42;18.53;;;9.90;;
21820;SDS011;11073;48.586;12.066;2022-12-05T04:03:16;17.93;;;10.63;;
21820;SDS011;11073;48.586;12.066;2022-12-05T04:05:51;16.60;;;10.10;;
21820;SDS011;11073;48.586;12.066;2022-12-05T04:08:23;16.27;;;9.43;;
21820;SDS011;11073;48.586;12.066;2022-12-05T04:10:56;15.87;;;10.03;;
21820;SDS011;11073;48.586;12.066;2022-12-05T04:13:29;15.17;;;9.83;;
21820;SDS011;11073;48.586;12.066;2022-12-05T04:16:03;16.37;;;9.87;;
21820;SDS011;11073;48.586;12.066;2022-12-05T04:18:57;17.03;;;10.23;;
21820;SDS011;11073;48.586;12.066;2022-12-05T04:21:31;21.00;;;11.07;;
21820;SDS011;11073;48.586;12.066;2022-12-05T04:24:05;20.57;;;10.77;;
21820;SDS011;11073;48.586;12.066;2022-12-05T04:26:55;20.23;;;10.00;;
21820;SDS011;11073;48.586;12.066;2022-12-05T04:29:33;18.77;;;10.70;;
21820;SDS011;11073;48.586;12.066;2022-12-05T04:32:09;19.13;;;10.53;;
21820;SDS011;11073;48.586;12.066;2022-12-05T04:34:41;17.03;;;9.83;;
21820;SDS011;11073;48.586;12.066;2022-12-05T04:37:17;17.60;;;9.90;;
21820;SDS011;11073;48.586;12.066;2022-12-05T04:39:52;18.73;;;10.80;;
21820;SDS011;11073;48.586;12.066;2022-12-05T04:42:24;19.97;;;10.33;;
21820;SDS011;11073;48.586;12.066;2022-12-05T04:44:57;17.83;;;10.43;;
21820;SDS011;11073;48.586;12.066;2022-12-05T04:47:31;17.23;;;10.83;;
21820;SDS011;11073;48.586;12.066;2022-12-05T04:50:07;19.20;;;10.77;;
21820;SDS011;11073;48.586;12.066;2022-12-05T04:52:39;19.07;;;10.73;;
21820;SDS011;11073;48.586;12.066;2022-12-05T04:55:09;18.63;;;11.23;;
21820;SDS011;11073;48.586;12.066;2022-12-05T04:57:41;19.90;;;10.73;;
21820;SDS011;11073;48.586;12.066;2022-12-05T05:00:17;20.23;;;11.33;;
21820;SDS011;11073;48.586;12.066;2022-12-05T05:02:47;17.63;;;11.00;;
21820;SDS011;11073;48.586;12.066;2022-12-05T05:05:21;18.83;;;11.10;;
21820;SDS011;11073;48.586;12.066;2022-12-05T05:07:53;20.40;;;11.37;;
21820;SDS011;11073;48.586;12.066;2022-12-05T05:10:24;20.27;;;11.43;;
21820;SDS011;11073;48.586;12.066;2022-12-05T05:13:00;19.93;;;11.37;;
21820;SDS011;11073;48.586;12.066;2022-12-05T05:15:28;20.50;;;11.53;;
21820;SDS011;11073;48.586;12.066;2022-12-05T05:17:57;17.67;;;10.57;;
21820;SDS011;11073;48.586;12.066;2022-12-05T05:20:27;19.20;;;10.37;;
21820;SDS011;11073;48.586;12.066;2022-12-05T05:22:56;16.87;;;9.93;;
21820;SDS011;11073;48.586;12.066;2022-12-05T05:25:25;19.17;;;10.43;;
21820;SDS011;11073;48.586;12.066;2022-12-05T05:27:54;16.53;;;10.40;;
21820;SDS011;11073;48.586;12.066;2022-12-05T05:30:24;18.57;;;10.47;;
21820;SDS011;11073;48.586;12.066;2022-12-05T05:32:52;18.70;;;9.97;;
21820;SDS011;11073;48.586;12.066;2022-12-05T05:35:21;18.37;;;10.23;;
21820;SDS011;11073;48.586;12.066;2022-12-05T05:37:51;20.30;;;10.80;;
21820;SDS011;11073;48.586;12.066;2022-12-05T05:40:19;22.90;;;12.03;;
21820;SDS011;11073;48.586;12.066;2022-12-05T05:42:48;23.67;;;12.07;;
21820;SDS011;11073;48.586;12.066;2022-12-05T05:45:17;22.67;;;12.47;;
21820;SDS011;11073;48.586;12.066;2022-12-05T05:47:47;24.07;;;12.87;;
21820;SDS011;11073;48.586;12.066;2022-12-05T05:50:16;20.97;;;12.20;;
21820;SDS011;11073;48.586;12.066;2022-12-05T05:52:47;21.27;;;11.90;;
21820;SDS011;11073;48.586;12.066;2022-12-05T05:55:18;19.40;;;10.60;;
21820;SDS011;11073;48.586;12.066;2022-12-05T05:57:47;27.77;;;15.07;;
21820;SDS011;11073;48.586;12.066;2022-12-05T06:00:16;27.90;;;14.40;;
21820;SDS011;11073;48.586;12.066;2022-12-05T06:02:46;22.63;;;12.27;;
21820;SDS011;11073;48.586;12.066;2022-12-05T06:05:14;18.33;;;11.20;;
21820;SDS011;11073;48.586;12.066;2022-12-05T06:07:43;21.37;;;11.67;;
21820;SDS011;11073;48.586;12.066;2022-12-05T06:10:12;22.00;;;12.10;;
21820;SDS011;11073;48.586;12.066;2022-12-05T06:12:42;21.37;;;11.00;;
21820;SDS011;11073;48.586;12.066;2022-12-05T06:15:11;23.63;;;12.00;;
21820;SDS011;11073;48.586;12.066;2022-12-05T06:17:39;19.53;;;11.00;;
21820;SDS011;11073;48.586;12.066;2022-12-05T06:20:09;22.03;;;10.93;;
21820;SDS011;11073;48.586;12.066;2022-12-05T06:22:38;20.57;;;10.77;;
21820;SDS011;11073;48.586;12.066;2022-12-05T06:25:07;18.67;;;10.47;;
21820;SDS011;11073;48.586;12.066;2022-12-05T06:27:36;20.20;;;10.93;;
21820;SDS011;11073;48.586;12.066;2022-12-05T06:30:07;19.77;;;11.03;;
21820;SDS011;11073;48.586;12.066;2022-12-05T06:32:36;19.93;;;10.67;;
21820;SDS011;11073;48.586;12.066;2022-12-05T06:35:05;19.03;;;11.27;;
21820;SDS011;11073;48.586;12.066;2022-12-05T06:37:41;22.40;;;12.07;;
21820;SDS011;11073;48.586;12.066;2022-12-05T06:40:10;21.60;;;11.97;;
21820;SDS011;11073;48.586;12.066;2022-12-05T06:42:40;19.80;;;10.83;;
21820;SDS011;11073;48.586;12.066;2022-12-05T06:45:10;19.43;;;10.97;;
21820;SDS011;11073;48.586;12.066;2022-12-05T06:47:39;27.10;;;14.03;;
21820;SDS011;11073;48.586;12.066;2022-12-05T06:50:08;26.20;;;13.37;;
21820;SDS011;11073;48.586;12.066;2022-12-05T06:52:37;25.23;;;13.53;;
21820;SDS011;11073;48.586;12.066;2022-12-05T06:55:06;27.80;;;14.43;;
21820;SDS011;11073;48.586;12.066;2022-12-05T06:57:35;28.27;;;13.67;;
21820;SDS011;11073;48.586;12.066;2022-12-05T07:00:04;26.27;;;13.83;;
21820;SDS011;11073;48.586;12.066;2022-12-05T07:02:52;24.13;;;13.30;;
21820;SDS011;11073;48.586;12.066;2022-12-05T07:05:21;30.10;;;14.90;;
21820;SDS011;11073;48.586;12.066;2022-12-05T07:07:50;30.07;;;15.33;;
21820;SDS011;11073;48.586;12.066;2022-12-05T07:10:18;31.77;;;15.20;;
21820;SDS011;11073;48.586;12.066;2022-12-05T07:12:47;27.67;;;14.47;;
21820;SDS011;11073;48.586;12.066;2022-12-05T07:15:16;30.87;;;15.40;;
21820;SDS011;11073;48.586;12.066;2022-12-05T07:17:45;31.67;;;15.97;;
21820;SDS011;11073;48.586;12.066;2022-12-05T07:20:15;30.63;;;16.10;;
21820;SDS011;11073;48.586;12.066;2022-12-05T07:22:44;31.67;;;16.67;;
21820;SDS011;11073;48.586;12.066;2022-12-05T07:25:13;34.27;;;16.27;;
21820;SDS011;11073;48.586;12.066;2022-12-05T07:27:43;36.60;;;17.70;;
21820;SDS011;11073;48.586;12.066;2022-12-05T07:30:12;33.47;;;17.23;;
21820;SDS011;11073;48.586;12.066;2022-12-05T07:32:41;30.33;;;15.53;;
21820;SDS011;11073;48.586;12.066;2022-12-05T07:35:09;28.37;;;16.10;;
21820;SDS011;11073;48.586;12.066;2022-12-05T07:37:39;61.43;;;17.33;;
21820;SDS011;11073;48.586;12.066;2022-12-05T07:40:09;29.97;;;15.83;;
21820;SDS011;11073;48.586;12.066;2022-12-05T07:42:40;26.70;;;14.77;;
21820;SDS011;11073;48.586;12.066;2022-12-05T07:45:09;26.10;;;13.20;;
21820;SDS011;11073;48.586;12.066;2022-12-05T07:47:38;28.63;;;15.50;;
21820;SDS011;11073;48.586;12.066;2022-12-05T07:50:08;23.10;;;13.30;;
21820;SDS011;11073;48.586;12.066;2022-12-05T07:52:36;23.40;;;13.13;;
21820;SDS011;11073;48.586;12.066;2022-12-05T07:55:07;23.27;;;13.00;;
21820;SDS011;11073;48.586;12.066;2022-12-05T07:57:36;27.83;;;14.10;;
21820;SDS011;11073;48.586;12.066;2022-12-05T08:00:05;26.77;;;15.43;;
21820;SDS011;11073;48.586;12.066;2022-12-05T08:02:38;26.33;;;14.83;;
21820;SDS011;11073;48.586;12.066;2022-12-05T08:05:07;31.40;;;16.27;;
21820;SDS011;11073;48.586;12.066;2022-12-05T08:07:36;25.03;;;13.13;;
21820;SDS011;11073;48.586;12.066;2022-12-05T08:10:07;28.97;;;15.20;;
21820;SDS011;11073;48.586;12.066;2022-12-05T08:12:36;27.87;;;15.13;;
21820;SDS011;11073;48.586;12.066;2022-12-05T08:15:06;32.43;;;15.23;;
21820;SDS011;11073;48.586;12.066;2022-12-05T08:17:36;27.57;;;14.30;;
21820;SDS011;11073;48.586;12.066;2022-12-05T08:20:05;32.93;;;15.53;;
21820;SDS011;11073;48.586;12.066;2022-12-05T08:22:35;27.33;;;14.60;;
21820;SDS011;11073;48.586;12.066;2022-12-05T08:25:04;27.60;;;14.20;;
21820;SDS011;11073;48.586;12.066;2022-12-05T08:27:34;28.57;;;15.67;;
21820;SDS011;11073;48.586;12.066;2022-12-05T08:30:04;24.77;;;13.90;;
21820;SDS011;11073;48.586;12.066;2022-12-05T08:32:34;27.80;;;16.23;;
21820;SDS011;11073;48.586;12.066;2022-12-05T08:35:03;29.43;;;15.33;;
21820;SDS011;11073;48.586;12.066;2022-12-05T08:37:32;25.30;;;14.17;;
21820;SDS011;11073;48.586;12.066;2022-12-05T08:40:01;29.13;;;14.13;;
21820;SDS011;11073;48.586;12.066;2022-12-05T08:42:30;26.63;;;14.10;;
21820;SDS011;11073;48.586;12.066;2022-12-05T08:45:00;23.67;;;13.60;;
21820;SDS011;11073;48.586;12.066;2022-12-05T08:47:29;25.33;;;14.20;;
21820;SDS011;11073;48.586;12.066;2022-12-05T08:49:58;23.47;;;13.50;;
21820;SDS011;11073;48.586;12.066;2022-12-05T08:52:27;27.50;;;14.20;;
21820;SDS011;11073;48.586;12.066;2022-12-05T08:54:56;26.73;;;14.93;;
21820;SDS011;11073;48.586;12.066;2022-12-05T08:57:26;27.77;;;14.47;;
21820;SDS011;11073;48.586;12.066;2022-12-05T08:59:54;30.10;;;16.00;;
21820;SDS011;11073;48.586;12.066;2022-12-05T09:02:24;35.40;;;19.77;;
21820;SDS011;11073;48.586;12.066;2022-12-05T09:04:53;27.30;;;14.73;;
21820;SDS011;11073;48.586;12.066;2022-12-05T09:07:35;30.00;;;16.23;;
21820;SDS011;11073;48.586;12.066;2022-12-05T09:10:04;29.30;;;15.43;;
21820;SDS011;11073;48.586;12.066;2022-12-05T09:12:34;29.83;;;15.87;;
21820;SDS011;11073;48.586;12.066;2022-12-05T09:15:05;29.07;;;15.27;;
21820;SDS011;11073;48.586;12.066;2022-12-05T09:17:37;27.80;;;14.53;;
21820;SDS011;11073;48.586;12.066;2022-12-05T09:20:07;32.10;;;15.87;;
21820;SDS011;11073;48.586;12.066;2022-12-05T09:22:38;28.03;;;14.90;;
21820;SDS011;11073;48.586;12.066;2022-12-05T09:25:07;28.23;;;14.73;;
21820;SDS011;11073;48.586;12.066;2022-12-05T09:27:37;28.40;;;15.30;;
21820;SDS011;11073;48.586;12.066;2022-12-05T09:30:06;28.70;;;14.67;;
21820;SDS011;11073;48.586;12.066;2022-12-05T09:32:37;27.50;;;14.80;;
21820;SDS011;11073;48.586;12.066;2022-12-05T09:35:07;48.60;;;25.30;;
21820;SDS011;11073;48.586;12.066;2022-12-05T09:37:35;30.97;;;14.60;;
21820;SDS011;11073;48.586;12.066;2022-12-05T09:40:06;41.73;;;21.80;;
21820;SDS011;11073;48.586;12.066;2022-12-05T09:42:43;49.23;;;23.53;;
21820;SDS011;11073;48.586;12.066;2022-12-05T09:45:25;34.77;;;17.87;;
21820;SDS011;11073;48.586;12.066;2022-12-05T09:48:05;35.83;;;18.13;;
21820;SDS011;11073;48.586;12.066;2022-12-05T09:50:40;29.50;;;15.63;;
21820;SDS011;11073;48.586;12.066;2022-12-05T09:53:16;31.13;;;14.77;;
21820;SDS011;11073;48.586;12.066;2022-12-05T09:55:56;26.43;;;13.27;;
21820;SDS011;11073;48.586;12.066;2022-12-05T09:58:32;32.63;;;16.50;;
21820;SDS011;11073;48.586;12.066;2022-12-05T10:01:12;30.63;;;14.83;;
21820;SDS011;11073;48.586;12.066;2022-12-05T10:03:59;24.70;;;13.30;;
21820;SDS011;11073;48.586;12.066;2022-12-05T10:06:35;28.40;;;14.73;;
21820;SDS011;11073;48.586;12.066;2022-12-05T10:09:12;25.90;;;14.07;;
21820;SDS011;11073;48.586;12.066;2022-12-05T10:11:53;26.50;;;13.80;;
21820;SDS011;11073;48.586;12.066;2022-12-05T10:14:29;23.60;;;12.17;;
21820;SDS011;11073;48.586;12.066;2022-12-05T10:17:07;22.33;;;12.10;;
21820;SDS011;11073;48.586;12.066;2022-12-05T10:19:44;24.37;;;13.03;;
21820;SDS011;11073;48.586;12.066;2022-12-05T10:22:16;22.30;;;12.50;;
21820;SDS011;11073;48.586;12.066;2022-12-05T10:24:51;25.67;;;12.70;;
21820;SDS011;11073;48.586;12.066;2022-12-05T10:27:33;21.93;;;12.80;;
21820;SDS011;11073;48.586;12.066;2022-12-05T10:30:11;22.50;;;12.87;;
21820;SDS011;11073;48.586;12.066;2022-12-05T10:32:44;23.17;;;12.90;;
21820;SDS011;11073;48.586;12.066;2022-12-05T10:35:21;21.07;;;11.87;;
21820;SDS011;11073;48.586;12.066;2022-12-05T10:37:52;20.90;;;12.40;;
21820;SDS011;11073;48.586;12.066;2022-12-05T10:40:26;20.30;;;11.63;;
21820;SDS011;11073;48.586;12.066;2022-12-05T10:43:02;21.10;;;11.50;;
21820;SDS011;11073;48.586;12.066;2022-12-05T10:45:32;23.70;;;12.20;;
21820;SDS011;11073;48.586;12.066;2022-12-05T10:48:07;22.17;;;12.33;;
21820;SDS011;11073;48.586;12.066;2022-12-05T10:50:41;19.30;;;11.53;;
21820;SDS011;11073;48.586;12.066;2022-12-05T10:53:12;21.87;;;11.43;;
21820;SDS011;11073;48.586;12.066;2022-12-05T10:55:45;19.30;;;10.67;;
21820;SDS011;11073;48.586;12.066;2022-12-05T10:58:36;17.70;;;10.53;;
21820;SDS011;11073;48.586;12.066;2022-12-05T11:01:06;19.30;;;10.97;;
21820;SDS011;11073;48.586;12.066;2022-12-05T11:03:37;19.87;;;11.23;;
21820;SDS011;11073;48.586;12.066;2022-12-05T11:06:15;19.17;;;11.17;;
21820;SDS011;11073;48.586;12.066;2022-12-05T11:08:50;18.30;;;11.30;;
21820;SDS011;11073;48.586;12.066;2022-12-05T11:11:35;21.63;;;12.70;;
21820;SDS011;11073;48.586;12.066;2022-12-05T11:14:04;22.03;;;12.97;;
21820;SDS011;11073;48.586;12.066;2022-12-05T11:16:35;20.77;;;12.03;;
21820;SDS011;11073;48.586;12.066;2022-12-05T11:19:18;19.63;;;11.03;;
21820;SDS011;11073;48.586;12.066;2022-12-05T11:21:54;18.73;;;11.40;;
21820;SDS011;11073;48.586;12.066;2022-12-05T11:24:26;18.70;;;11.00;;
21820;SDS011;11073;48.586;12.066;2022-12-05T11:26:56;16.93;;;10.50;;
21820;SDS011;11073;48.586;12.066;2022-12-05T11:29:30;18.50;;;10.57;;
21820;SDS011;11073;48.586;12.066;2022-12-05T11:32:01;18.90;;;11.30;;
21820;SDS011;11073;48.586;12.066;2022-12-05T11:34:33;18.50;;;11.37;;
21820;SDS011;11073;48.586;12.066;2022-12-05T11:37:11;17.83;;;11.30;;
21820;SDS011;11073;48.586;12.066;2022-12-05T11:39:41;17.27;;;11.53;;
21820;SDS011;11073;48.586;12.066;2022-12-05T11:45:18;20.90;;;12.47;;
21820;SDS011;11073;48.586;12.066;2022-12-05T11:48:11;22.10;;;12.83;;
21820;SDS011;11073;48.586;12.066;2022-12-05T11:50:51;20.23;;;12.40;;
21820;SDS011;11073;48.586;12.066;2022-12-05T11:53:42;19.20;;;11.90;;
21820;SDS011;11073;48.586;12.066;2022-12-05T11:56:30;19.73;;;11.93;;
21820;SDS011;11073;48.586;12.066;2022-12-05T11:59:12;20.83;;;12.60;;
21820;SDS011;11073;48.586;12.066;2022-12-05T12:01:55;21.03;;;11.87;;
21820;SDS011;11073;48.586;12.066;2022-12-05T12:04:32;19.17;;;12.17;;
21820;SDS011;11073;48.586;12.066;2022-12-05T12:07:12;18.70;;;12.27;;
21820;SDS011;11073;48.586;12.066;2022-12-05T12:09:56;19.10;;;12.00;;
21820;SDS011;11073;48.586;12.066;2022-12-05T12:12:38;19.40;;;12.30;;
21820;SDS011;11073;48.586;12.066;2022-12-05T12:15:24;19.47;;;12.97;;
21820;SDS011;11073;48.586;12.066;2022-12-05T12:18:04;20.93;;;14.17;;
21820;SDS011;11073;48.586;12.066;2022-12-05T12:20:46;24.27;;;15.27;;
21820;SDS011;11073;48.586;12.066;2022-12-05T12:23:50;22.93;;;14.20;;
21820;SDS011;11073;48.586;12.066;2022-12-05T12:26:33;23.73;;;15.00;;
21820;SDS011;11073;48.586;12.066;2022-12-05T12:29:16;21.83;;;13.07;;
21820;SDS011;11073;48.586;12.066;2022-12-05T12:31:54;30.67;;;17.00;;
21820;SDS011;11073;48.586;12.066;2022-12-05T12:34:41;23.00;;;14.27;;
21820;SDS011;11073;48.586;12.066;2022-12-05T12:37:25;20.73;;;14.03;;
21820;SDS011;11073;48.586;12.066;2022-12-05T12:40:03;21.30;;;14.07;;
21820;SDS011;11073;48.586;12.066;2022-12-05T12:42:45;23.53;;;14.93;;
21820;SDS011;11073;48.586;12.066;2022-12-05T12:45:26;26.13;;;16.20;;
21820;SDS011;11073;48.586;12.066;2022-12-05T12:48:12;24.80;;;14.90;;
21820;SDS011;11073;48.586;12.066;2022-12-05T12:50:49;22.60;;;14.93;;
21820;SDS011;11073;48.586;12.066;2022-12-05T12:53:30;24.37;;;15.30;;
21820;SDS011;11073;48.586;12.066;2022-12-05T12:56:14;25.50;;;15.73;;
21820;SDS011;11073;48.586;12.066;2022-12-05T12:58:55;26.87;;;15.77;;
21820;SDS011;11073;48.586;12.066;2022-12-05T13:01:32;24.63;;;15.27;;
21820;SDS011;11073;48.586;12.066;2022-12-05T13:04:08;27.93;;;16.47;;
21820;SDS011;11073;48.586;12.066;2022-12-05T13:06:42;36.97;;;20.37;;
21820;SDS011;11073;48.586;12.066;2022-12-05T13:09:15;31.00;;;17.10;;
21820;SDS011;11073;48.586;12.066;2022-12-05T13:11:47;27.23;;;16.90;;
21820;SDS011;11073;48.586;12.066;2022-12-05T13:14:19;31.13;;;18.17;;
21820;SDS011;11073;48.586;12.066;2022-12-05T13:16:52;30.23;;;17.93;;
21820;SDS011;11073;48.586;12.066;2022-12-05T13:19:24;27.67;;;16.90;;
21820;SDS011;11073;48.586;12.066;2022-12-05T13:21:56;29.20;;;18.20;;
21820;SDS011;11073;48.586;12.066;2022-12-05T13:24:26;29.73;;;17.93;;
21820;SDS011;11073;48.586;12.066;2022-12-05T13:26:56;32.73;;;18.87;;
21820;SDS011;11073;48.586;12.066;2022-12-05T13:29:30;31.37;;;18.90;;
21820;SDS011;11073;48.586;12.066;2022-12-05T13:32:02;30.40;;;18.13;;
21820;SDS011;11073;48.586;12.066;2022-12-05T13:34:38;34.03;;;20.10;;
21820;SDS011;11073;48.586;12.066;2022-12-05T13:37:19;29.13;;;17.90;;
21820;SDS011;11073;48.586;12.066;2022-12-05T13:40:18;32.47;;;19.10;;
21820;SDS011;11073;48.586;12.066;2022-12-05T13:43:08;30.03;;;17.87;;
21820;SDS011;11073;48.586;12.066;2022-12-05T13:45:39;35.40;;;18.87;;
21820;SDS011;11073;48.586;12.066;2022-12-05T13:48:20;30.17;;;18.43;;
21820;SDS011;11073;48.586;12.066;2022-12-05T13:50:53;30.03;;;17.47;;
21820;SDS011;11073;48.586;12.066;2022-12-05T13:53:30;30.50;;;18.53;;
21820;SDS011;11073;48.586;12.066;2022-12-05T13:56:04;35.83;;;19.13;;
21820;SDS011;11073;48.586;12.066;2022-12-05T13:58:39;32.83;;;19.00;;
21820;SDS011;11073;48.586;12.066;2022-12-05T14:04:38;30.90;;;18.67;;
21820;SDS011;11073;48.586;12.066;2022-12-05T14:07:10;33.43;;;19.00;;
21820;SDS011;11073;48.586;12.066;2022-12-05T14:09:50;37.70;;;21.67;;
21820;SDS011;11073;48.586;12.066;2022-12-05T14:15:25;42.83;;;24.93;;
21820;SDS011;11073;48.586;12.066;2022-12-05T14:18:02;55.93;;;29.07;;
21820;SDS011;11073;48.586;12.066;2022-12-05T14:26:30;39.00;;;21.87;;
21820;SDS011;11073;48.586;12.066;2022-12-05T14:32:10;33.93;;;20.53;;
21820;SDS011;11073;48.586;12.066;2022-12-05T14:34:55;36.00;;;20.83;;
21820;SDS011;11073;48.586;12.066;2022-12-05T14:37:29;40.00;;;22.43;;
21820;SDS011;11073;48.586;12.066;2022-12-05T14:40:01;46.30;;;24.90;;
21820;SDS011;11073;48.586;12.066;2022-12-05T14:42:42;44.23;;;24.60;;
21820;SDS011;11073;48.586;12.066;2022-12-05T14:45:22;47.30;;;26.53;;
21820;SDS011;11073;48.586;12.066;2022-12-05T14:47:55;48.97;;;26.93;;
21820;SDS011;11073;48.586;12.066;2022-12-05T14:50:38;42.20;;;24.90;;
21820;SDS011;11073;48.586;12.066;2022-12-05T14:53:13;54.03;;;28.03;;
21820;SDS011;11073;48.586;12.066;2022-12-05T14:55:46;49.43;;;27.07;;
21820;SDS011;11073;48.586;12.066;2022-12-05T14:58:18;51.17;;;25.33;;
21820;SDS011;11073;48.586;12.066;2022-12-05T15:00:53;38.37;;;22.53;;
21820;SDS011;11073;48.586;12.066;2022-12-05T15:03:26;54.10;;;25.57;;
21820;SDS011;11073;48.586;12.066;2022-12-05T15:06:00;55.00;;;24.70;;
21820;SDS011;11073;48.586;12.066;2022-12-05T15:08:33;45.93;;;23.90;;
21820;SDS011;11073;48.586;12.066;2022-12-05T15:11:12;46.90;;;24.37;;
21820;SDS011;11073;48.586;12.066;2022-12-05T15:13:55;60.97;;;26.30;;